createdAt,value
2022-10-05T00:02:24.346Z,9.23
2022-10-05T00:04:57.591Z,8.27
2022-10-05T00:07:30.690Z,9.02
2022-10-05T00:10:14.029Z,7.47
2022-10-05T00:12:48.366Z,8.48
2022-10-05T00:15:23.073Z,8.55
2022-10-05T00:17:56.073Z,8.80
2022-10-05T00:20:28.778Z,9.50
2022-10-05T00:23:07.789Z,8.93
2022-10-05T00:25:42.803Z,8.38
2022-10-05T00:28:29.279Z,9.45
2022-10-05T00:31:01.867Z,8.25
2022-10-05T00:33:34.553Z,8.90
2022-10-05T00:36:07.727Z,9.15
2022-10-05T00:38:41.065Z,9.68
2022-10-05T00:41:31.886Z,10.45
2022-10-05T00:44:22.845Z,10.35
2022-10-05T00:47:13.882Z,10.25
2022-10-05T00:54:13.639Z,10.38
2022-10-05T00:57:22.955Z,9.90
2022-10-05T01:00:13.106Z,11.52
2022-10-05T01:03:16.464Z,11.63
2022-10-05T01:06:22.672Z,12.18
2022-10-05T01:09:22.731Z,10.80
2022-10-05T01:12:17.914Z,11.00
2022-10-05T01:15:11.951Z,10.63
2022-10-05T01:18:12.522Z,9.82
2022-10-05T01:20:57.080Z,9.55
2022-10-05T01:23:55.594Z,9.98
2022-10-05T01:26:37.022Z,10.43
2022-10-05T01:29:28.405Z,10.63
2022-10-05T01:32:12.715Z,10.73
2022-10-05T01:35:02.413Z,10.27
2022-10-05T01:37:44.166Z,10.15
2022-10-05T01:40:25.154Z,9.73
2022-10-05T01:43:03.922Z,10.25
2022-10-05T01:46:00.943Z,10.65
2022-10-05T01:48:47.026Z,10.80
2022-10-05T01:51:19.744Z,9.57
2022-10-05T01:54:03.929Z,10.02
2022-10-05T01:56:50.297Z,10.40
2022-10-05T01:59:40.862Z,9.43
2022-10-05T02:05:16.649Z,8.88
2022-10-05T02:08:00.517Z,9.35
2022-10-05T02:10:49.042Z,11.00
2022-10-05T02:13:44.137Z,10.30
2022-10-05T02:16:30.246Z,10.95
2022-10-05T02:19:08.667Z,9.50
2022-10-05T02:21:43.938Z,10.00
2022-10-05T02:24:29.919Z,9.27
2022-10-05T02:27:05.231Z,10.13
2022-10-05T02:29:42.226Z,10.73
2022-10-05T02:32:27.410Z,9.45
2022-10-05T02:35:07.602Z,10.10
2022-10-05T02:38:06.761Z,10.13
2022-10-05T02:41:01.249Z,10.73
2022-10-05T02:43:46.177Z,9.52
2022-10-05T02:46:35.087Z,9.13
2022-10-05T02:49:20.005Z,9.30
2022-10-05T02:51:58.963Z,10.52
2022-10-05T02:54:42.802Z,9.57
2022-10-05T02:57:53.271Z,9.02
2022-10-05T03:00:28.966Z,10.27
2022-10-05T03:03:28.908Z,10.13
2022-10-05T03:06:07.735Z,10.02
2022-10-05T03:08:52.465Z,9.63
2022-10-05T03:11:46.563Z,10.95
2022-10-05T03:14:54.345Z,11.18
2022-10-05T03:17:37.796Z,9.68
2022-10-05T03:20:56.326Z,10.80
2022-10-05T03:23:59.349Z,10.30
2022-10-05T03:26:47.261Z,10.80
2022-10-05T03:29:42.257Z,9.57
2022-10-05T03:32:42.181Z,9.45
2022-10-05T03:35:28.961Z,9.57
2022-10-05T03:38:08.368Z,9.95
2022-10-05T03:41:08.677Z,10.65
2022-10-05T03:43:59.745Z,9.70
2022-10-05T03:46:48.270Z,10.70
2022-10-05T03:49:58.654Z,12.02
2022-10-05T03:53:06.101Z,12.13
2022-10-05T03:55:48.383Z,12.68
2022-10-05T03:58:53.974Z,13.23
2022-10-05T04:01:40.257Z,13.13
2022-10-05T04:04:23.084Z,13.85
2022-10-05T04:06:57.864Z,14.35
2022-10-05T04:09:36.725Z,14.15
2022-10-05T04:12:15.198Z,13.45
2022-10-05T04:14:53.782Z,14.00
2022-10-05T04:17:49.113Z,13.50
2022-10-05T04:20:27.413Z,13.52
2022-10-05T04:23:11.389Z,13.05
2022-10-05T04:25:57.688Z,14.20
2022-10-05T04:28:46.904Z,11.88
2022-10-05T04:32:00.601Z,12.30
2022-10-05T04:34:57.292Z,11.90
2022-10-05T04:37:56.384Z,13.18
2022-10-05T04:41:00.444Z,12.57
2022-10-05T04:44:15.101Z,12.55
2022-10-05T04:47:08.975Z,13.57
2022-10-05T04:50:05.817Z,12.68
2022-10-05T04:52:58.032Z,12.80
2022-10-05T04:55:52.961Z,13.02
2022-10-05T04:58:36.786Z,12.73
2022-10-05T05:01:43.685Z,14.05
2022-10-05T05:04:25.088Z,14.43
2022-10-05T05:07:03.848Z,13.27
2022-10-05T05:10:03.204Z,13.65
2022-10-05T05:13:17.779Z,14.77
2022-10-05T05:16:01.656Z,14.05
2022-10-05T05:18:52.681Z,13.52
2022-10-05T05:21:45.846Z,13.65
2022-10-05T05:24:54.566Z,13.40
2022-10-05T05:27:47.614Z,13.77
2022-10-05T05:30:24.885Z,13.73
2022-10-05T05:33:25.325Z,14.10
2022-10-05T05:36:17.334Z,14.05
2022-10-05T05:39:20.297Z,12.82
2022-10-05T05:42:22.314Z,13.45
2022-10-05T05:44:59.192Z,14.27
2022-10-05T05:47:38.755Z,13.23
2022-10-05T05:50:22.153Z,14.10
2022-10-05T05:53:04.281Z,13.63
2022-10-05T05:55:42.450Z,13.90
2022-10-05T05:58:37.578Z,13.15
2022-10-05T06:01:32.066Z,13.50
2022-10-05T06:04:31.620Z,14.57
2022-10-05T06:07:06.042Z,12.60
2022-10-05T06:10:10.704Z,13.38
2022-10-05T06:12:47.891Z,14.82
2022-10-05T06:15:56.002Z,13.57
2022-10-05T06:18:32.061Z,13.93
2022-10-05T06:21:23.591Z,14.70
2022-10-05T06:24:21.006Z,14.10
2022-10-05T06:26:56.802Z,13.73
2022-10-05T06:29:55.743Z,14.07
2022-10-05T06:32:46.302Z,13.27
2022-10-05T06:35:43.239Z,12.02
2022-10-05T06:38:35.866Z,12.38
2022-10-05T06:41:14.303Z,12.20
2022-10-05T06:44:00.778Z,11.38
2022-10-05T06:46:46.463Z,11.52
2022-10-05T06:49:31.351Z,12.05
2022-10-05T06:52:18.740Z,10.70
2022-10-05T06:55:13.877Z,9.35
2022-10-05T06:58:04.980Z,9.30
2022-10-05T07:00:52.716Z,8.43
2022-10-05T07:04:10.823Z,8.50
2022-10-05T07:06:58.656Z,8.18
2022-10-05T07:09:49.800Z,7.80
2022-10-05T07:12:43.990Z,7.15
2022-10-05T07:15:41.599Z,6.88
2022-10-05T07:18:42.660Z,6.68
2022-10-05T07:21:56.279Z,6.32
2022-10-05T07:25:01.406Z,5.78
2022-10-05T07:27:37.912Z,6.03
2022-10-05T07:30:13.667Z,5.80
2022-10-05T07:33:00.874Z,5.88
2022-10-05T07:35:52.046Z,5.43
2022-10-05T07:38:39.028Z,6.03
2022-10-05T07:41:21.549Z,5.65
2022-10-05T07:44:12.785Z,5.93
2022-10-05T07:47:03.910Z,5.53
2022-10-05T07:49:59.743Z,6.00
2022-10-05T07:52:47.098Z,5.40
2022-10-05T07:55:31.087Z,5.53
2022-10-05T07:58:29.625Z,5.40
2022-10-05T08:01:31.780Z,6.10
2022-10-05T08:04:13.135Z,5.95
2022-10-05T08:07:02.630Z,5.35
2022-10-05T08:09:43.019Z,5.55
2022-10-05T08:15:10.914Z,5.70
2022-10-05T08:18:05.631Z,5.60
2022-10-05T08:20:53.252Z,4.80
2022-10-05T08:23:38.770Z,5.55
2022-10-05T08:26:24.103Z,5.68
2022-10-05T08:28:59.637Z,6.25
2022-10-05T08:31:46.173Z,5.10
2022-10-05T08:34:45.882Z,4.90
2022-10-05T08:37:18.602Z,5.80
2022-10-05T08:40:18.913Z,5.50
2022-10-05T08:43:16.348Z,5.70
2022-10-05T08:46:13.789Z,5.20
2022-10-05T08:49:25.242Z,4.28
2022-10-05T08:51:58.084Z,5.22
2022-10-05T08:54:45.667Z,4.75
2022-10-05T08:57:18.252Z,5.75
2022-10-05T09:00:02.813Z,4.47
2022-10-05T09:03:08.133Z,4.38
2022-10-05T09:06:22.463Z,5.22
2022-10-05T09:09:02.417Z,4.85
2022-10-05T09:14:36.518Z,3.70
2022-10-05T09:17:11.880Z,3.80
2022-10-05T09:20:27.495Z,3.75
2022-10-05T09:23:14.590Z,3.63
2022-10-05T09:25:57.641Z,4.00
2022-10-05T09:29:11.601Z,3.83
2022-10-05T09:31:58.970Z,3.40
2022-10-05T09:34:53.713Z,4.13
2022-10-05T09:37:44.357Z,4.00
2022-10-05T09:40:22.222Z,4.90
2022-10-05T09:43:19.220Z,4.45
2022-10-05T09:46:11.316Z,4.18
2022-10-05T09:49:11.029Z,3.85
2022-10-05T09:51:49.580Z,3.90
2022-10-05T09:54:40.773Z,4.03
2022-10-05T09:57:34.629Z,3.70
2022-10-05T10:00:50.102Z,3.08
2022-10-05T10:03:56.826Z,3.90
2022-10-05T10:06:53.985Z,4.18
2022-10-05T10:09:50.141Z,4.05
2022-10-05T10:12:47.397Z,4.60
2022-10-05T10:15:52.628Z,4.80
2022-10-05T10:18:42.101Z,4.07
2022-10-05T10:21:35.918Z,5.10
2022-10-05T10:24:14.812Z,4.13
2022-10-05T10:27:08.737Z,4.93
2022-10-05T10:29:59.857Z,4.75
2022-10-05T10:32:51.314Z,5.70
2022-10-05T10:35:36.531Z,5.28
2022-10-05T10:38:35.918Z,5.78
2022-10-05T10:41:26.617Z,6.05
2022-10-05T10:44:27.233Z,5.82
2022-10-05T10:47:08.643Z,6.35
2022-10-05T10:49:59.877Z,6.32
2022-10-05T10:52:54.351Z,6.13
2022-10-05T10:56:06.581Z,6.13
2022-10-05T10:59:29.320Z,6.00
2022-10-05T11:02:18.851Z,5.60
2022-10-05T11:05:26.110Z,5.97
2022-10-05T11:08:07.433Z,5.13
2022-10-05T11:11:08.745Z,5.43
2022-10-05T11:14:02.660Z,4.75
2022-10-05T11:16:58.973Z,5.57
2022-10-05T11:20:09.319Z,4.90
2022-10-05T11:25:55.890Z,4.30
2022-10-05T11:29:03.976Z,4.72
2022-10-05T11:31:55.553Z,4.38
2022-10-05T11:34:43.541Z,4.65
2022-10-05T11:37:37.211Z,4.57
2022-10-05T11:40:33.237Z,4.78
2022-10-05T11:43:42.375Z,4.68
2022-10-05T11:46:35.784Z,4.05
2022-10-05T11:49:20.368Z,4.28
2022-10-05T11:51:55.345Z,4.45
2022-10-05T11:55:11.788Z,4.10
2022-10-05T11:58:00.834Z,4.65
2022-10-05T12:01:00.836Z,4.03
2022-10-05T12:03:40.420Z,4.25
2022-10-05T12:06:29.613Z,3.83
2022-10-05T12:09:20.094Z,3.85
2022-10-05T12:12:22.427Z,3.90
2022-10-05T12:15:09.705Z,3.42
2022-10-05T12:18:00.143Z,3.40
2022-10-05T12:21:27.771Z,4.13
2022-10-05T12:24:09.569Z,3.92
2022-10-05T12:26:50.329Z,3.70
2022-10-05T12:29:27.876Z,3.85
2022-10-05T12:32:11.780Z,3.30
2022-10-05T12:35:03.306Z,3.67
2022-10-05T12:37:58.609Z,4.15
2022-10-05T12:40:56.772Z,3.63
2022-10-05T12:43:40.532Z,3.10
2022-10-05T12:46:24.416Z,3.75
2022-10-05T12:49:15.564Z,3.95
2022-10-05T12:51:53.893Z,3.33
2022-10-05T12:54:38.421Z,3.70
2022-10-05T12:57:30.224Z,3.08
2022-10-05T13:00:02.740Z,3.00
2022-10-05T13:02:49.072Z,3.45
2022-10-05T13:05:40.349Z,3.78
2022-10-05T13:08:52.042Z,3.72
2022-10-05T13:11:36.324Z,2.90
2022-10-05T13:14:21.017Z,3.30
2022-10-05T13:17:19.786Z,2.95
2022-10-05T13:20:03.226Z,2.63
2022-10-05T13:22:42.551Z,2.80
2022-10-05T13:25:23.924Z,2.75
2022-10-05T13:28:20.313Z,3.40
2022-10-05T13:31:06.451Z,2.75
2022-10-05T13:33:48.170Z,3.25
2022-10-05T13:36:42.390Z,2.58
2022-10-05T13:39:36.822Z,3.55
2022-10-05T13:42:28.747Z,3.20
2022-10-05T13:45:15.871Z,2.65
2022-10-05T13:48:14.062Z,2.90
2022-10-05T13:51:08.728Z,2.72
2022-10-05T13:53:56.752Z,3.17
2022-10-05T13:56:42.834Z,2.33
2022-10-05T13:59:50.021Z,2.83
2022-10-05T14:02:39.325Z,2.33
2022-10-05T14:05:17.296Z,2.42
2022-10-05T14:08:04.964Z,2.42
2022-10-05T14:10:46.396Z,2.58
2022-10-05T14:13:26.560Z,2.92
2022-10-05T14:16:04.595Z,2.40
2022-10-05T14:18:38.632Z,2.20
2022-10-05T14:21:11.569Z,2.40
2022-10-05T14:23:44.845Z,2.50
2022-10-05T14:26:23.744Z,2.35
2022-10-05T14:29:00.765Z,2.50
2022-10-05T14:31:36.582Z,2.10
2022-10-05T14:34:34.593Z,2.78
2022-10-05T14:37:19.724Z,17.67
2022-10-05T14:39:57.549Z,2.45
2022-10-05T14:42:46.294Z,3.90
2022-10-05T14:45:23.709Z,3.05
2022-10-05T14:48:08.900Z,2.42
2022-10-05T14:50:57.139Z,2.15
2022-10-05T14:53:46.158Z,2.83
2022-10-05T14:56:40.396Z,3.00
2022-10-05T14:59:45.923Z,2.67
2022-10-05T15:02:40.295Z,2.55
2022-10-05T15:05:47.971Z,2.67
2022-10-05T15:08:33.892Z,2.78
2022-10-05T15:11:09.255Z,3.00
2022-10-05T15:13:44.279Z,2.80
2022-10-05T15:16:26.263Z,3.03
2022-10-05T15:19:21.029Z,3.85
2022-10-05T15:22:41.967Z,2.97
2022-10-05T15:25:22.333Z,3.00
2022-10-05T15:28:09.915Z,3.47
2022-10-05T15:31:06.822Z,8.15
2022-10-05T15:33:50.462Z,11.35
2022-10-05T15:36:35.568Z,4.00
2022-10-05T15:39:35.983Z,2.83
2022-10-05T15:42:21.558Z,3.17
2022-10-05T15:45:06.592Z,2.85
2022-10-05T15:47:44.704Z,2.83
2022-10-05T15:50:26.371Z,2.90
2022-10-05T15:53:15.438Z,3.35
2022-10-05T15:56:14.854Z,3.40
2022-10-05T15:58:55.557Z,3.13
2022-10-05T16:01:34.384Z,3.05
2022-10-05T16:04:20.649Z,2.80
2022-10-05T16:07:20.163Z,3.33
2022-10-05T16:10:14.023Z,4.30
2022-10-05T16:12:52.915Z,2.92
2022-10-05T16:15:36.306Z,2.70
2022-10-05T16:18:50.246Z,2.70
2022-10-05T16:21:46.450Z,3.45
2022-10-05T16:24:37.792Z,3.05
2022-10-05T16:27:39.514Z,3.05
2022-10-05T16:30:16.743Z,2.78
2022-10-05T16:32:52.114Z,2.60
2022-10-05T16:35:44.439Z,2.78
2022-10-05T16:38:55.044Z,2.97
2022-10-05T16:41:43.238Z,3.10
2022-10-05T16:44:34.083Z,2.92
2022-10-05T16:47:27.540Z,3.42
2022-10-05T16:50:24.806Z,3.45
2022-10-05T16:53:03.295Z,3.83
2022-10-05T16:55:40.883Z,3.50
2022-10-05T16:59:04.321Z,3.30
2022-10-05T17:01:48.102Z,3.33
2022-10-05T17:04:41.966Z,4.03
2022-10-05T17:07:22.850Z,3.83
2022-10-05T17:10:14.294Z,3.45
2022-10-05T17:12:53.295Z,4.53
2022-10-05T17:15:32.888Z,4.30
2022-10-05T17:18:19.875Z,3.00
2022-10-05T17:21:09.373Z,3.80
2022-10-05T17:23:42.706Z,4.32
2022-10-05T17:26:39.680Z,5.07
2022-10-05T17:29:33.877Z,5.82
2022-10-05T17:32:06.567Z,6.55
2022-10-05T17:35:03.129Z,7.57
2022-10-05T17:37:40.441Z,7.18
2022-10-05T17:40:41.211Z,9.05
2022-10-05T17:43:17.172Z,9.68
2022-10-05T17:45:53.877Z,10.10
2022-10-05T17:49:03.197Z,9.77
2022-10-05T17:51:54.334Z,10.30
2022-10-05T17:54:58.525Z,11.13
2022-10-05T17:57:32.034Z,8.07
2022-10-05T18:00:27.817Z,8.25
2022-10-05T18:03:00.405Z,7.40
2022-10-05T18:05:33.213Z,8.02
2022-10-05T18:08:16.584Z,7.18
2022-10-05T18:11:37.814Z,7.30
2022-10-05T18:14:24.584Z,6.55
2022-10-05T18:17:19.284Z,6.50
2022-10-05T18:20:25.530Z,6.65
2022-10-05T18:23:01.511Z,6.40
2022-10-05T18:25:38.316Z,6.22
2022-10-05T18:28:48.369Z,6.65
2022-10-05T18:31:35.664Z,6.45
2022-10-05T18:34:26.498Z,6.97
2022-10-05T18:37:21.324Z,6.40
2022-10-05T18:40:06.088Z,6.05
2022-10-05T18:42:50.774Z,6.97
2022-10-05T18:45:38.780Z,5.88
2022-10-05T18:48:36.433Z,7.90
2022-10-05T18:51:29.076Z,7.20
2022-10-05T18:54:39.309Z,7.25
2022-10-05T18:57:31.599Z,7.97
2022-10-05T19:00:15.002Z,8.32
2022-10-05T19:02:57.287Z,8.27
2022-10-05T19:05:53.350Z,9.23
2022-10-05T19:08:45.110Z,8.77
2022-10-05T19:11:51.229Z,8.10
2022-10-05T19:14:48.906Z,9.82
2022-10-05T19:17:47.579Z,8.43
2022-10-05T19:20:23.303Z,8.45
2022-10-05T19:23:17.218Z,8.82
2022-10-05T19:26:02.718Z,8.45
2022-10-05T19:28:53.042Z,9.55
2022-10-05T19:31:48.415Z,9.85
2022-10-05T19:34:45.061Z,8.43
2022-10-05T19:37:50.897Z,8.50
2022-10-05T19:40:34.634Z,8.98
2022-10-05T19:43:23.333Z,8.35
2022-10-05T19:46:27.524Z,8.13
2022-10-05T19:49:00.626Z,8.23
2022-10-05T19:51:36.122Z,7.78
2022-10-05T19:54:14.259Z,8.55
2022-10-05T19:56:49.994Z,8.57
2022-10-05T19:59:31.527Z,9.02
2022-10-05T20:02:04.340Z,8.68
2022-10-05T20:04:43.268Z,8.77
2022-10-05T20:07:21.743Z,8.18
2022-10-05T20:09:54.546Z,7.68
2022-10-05T20:13:02.122Z,8.55
2022-10-05T20:15:55.053Z,7.93
2022-10-05T20:18:58.321Z,8.20
2022-10-05T20:21:40.272Z,7.78
2022-10-05T20:24:23.641Z,7.80
2022-10-05T20:27:06.303Z,7.53
2022-10-05T20:29:41.515Z,8.48
2022-10-05T20:32:18.095Z,7.82
2022-10-05T20:34:51.220Z,7.97
2022-10-05T20:37:24.494Z,7.25
2022-10-05T20:39:57.098Z,7.68
2022-10-05T20:42:30.031Z,7.70
2022-10-05T20:45:03.476Z,8.00
2022-10-05T20:47:37.722Z,7.85
2022-10-05T20:50:11.179Z,7.78
2022-10-05T20:52:43.976Z,8.63
2022-10-05T20:55:16.711Z,8.18
2022-10-05T20:57:49.741Z,8.65
2022-10-05T21:00:22.605Z,8.63
2022-10-05T21:02:55.669Z,7.18
2022-10-05T21:05:28.263Z,8.73
2022-10-05T21:08:01.805Z,8.23
2022-10-05T21:10:36.995Z,9.13
2022-10-05T21:13:09.997Z,8.27
2022-10-05T21:15:42.805Z,7.72
2022-10-05T21:18:18.265Z,7.80
2022-10-05T21:20:51.016Z,9.18
2022-10-05T21:23:51.318Z,8.32
2022-10-05T21:26:30.348Z,8.27
2022-10-05T21:29:06.863Z,8.20
2022-10-05T21:31:42.947Z,8.60
2022-10-05T21:34:15.996Z,8.02
2022-10-05T21:36:48.789Z,7.78
2022-10-05T21:39:22.153Z,7.47
2022-10-05T21:41:54.989Z,7.90
2022-10-05T21:44:28.119Z,7.55
2022-10-05T21:47:01.177Z,7.15
2022-10-05T21:49:36.297Z,7.63
2022-10-05T21:52:08.957Z,7.75
2022-10-05T21:54:41.906Z,7.10
2022-10-05T21:57:15.509Z,7.22
2022-10-05T21:59:48.977Z,7.85
2022-10-05T22:02:21.697Z,7.50
2022-10-05T22:04:54.612Z,8.27
2022-10-05T22:07:29.128Z,8.27
2022-10-05T22:10:02.793Z,8.95
2022-10-05T22:12:35.621Z,7.78
2022-10-05T22:15:09.174Z,8.52
2022-10-05T22:17:42.907Z,7.78
2022-10-05T22:20:15.843Z,7.63
2022-10-05T22:22:48.552Z,8.35
2022-10-05T22:25:22.786Z,8.00
2022-10-05T22:27:55.796Z,7.70
2022-10-05T22:30:29.607Z,8.57
2022-10-05T22:33:02.390Z,8.18
2022-10-05T22:35:36.382Z,8.25
2022-10-05T22:38:09.310Z,8.13
2022-10-05T22:40:42.174Z,8.98
2022-10-05T22:43:14.856Z,8.25
2022-10-05T22:45:47.752Z,8.40
2022-10-05T22:48:20.729Z,8.45
2022-10-05T22:50:53.592Z,8.80
2022-10-05T22:53:26.230Z,8.32
2022-10-05T22:56:05.290Z,7.80
2022-10-05T22:58:38.852Z,8.57
2022-10-05T23:01:15.350Z,8.18
2022-10-05T23:03:48.161Z,8.38
2022-10-05T23:06:21.425Z,8.20
2022-10-05T23:08:55.157Z,8.65
2022-10-05T23:11:28.961Z,8.90
2022-10-05T23:14:01.935Z,9.38
2022-10-05T23:16:34.841Z,8.05
2022-10-05T23:19:07.622Z,8.82
2022-10-05T23:21:40.537Z,9.43
2022-10-05T23:24:13.241Z,8.75
2022-10-05T23:26:46.167Z,8.27
2022-10-05T23:29:19.013Z,8.80
2022-10-05T23:31:51.913Z,8.75
2022-10-05T23:34:25.791Z,8.95
2022-10-05T23:36:58.586Z,9.82
2022-10-05T23:39:31.399Z,9.88
2022-10-05T23:42:05.218Z,8.32
2022-10-05T23:44:37.866Z,9.50
2022-10-05T23:47:10.920Z,7.70
2022-10-05T23:49:43.656Z,8.60
2022-10-05T23:52:16.612Z,8.43
2022-10-05T23:54:49.336Z,8.98
2022-10-05T23:57:22.424Z,8.32
2022-10-05T23:59:56.392Z,9.65
